sensor_id;sensor_type;location;lat;lon;timestamp;P1;durP1;ratioP1;P2;durP2;ratioP2
21777;SDS011;11050;52.222;20.916;2023-03-19T00:00:16;32.23;;;14.00;;
21777;SDS011;11050;52.222;20.916;2023-03-19T00:02:42;31.63;;;14.87;;
21777;SDS011;11050;52.222;20.916;2023-03-19T00:05:13;30.17;;;13.40;;
21777;SDS011;11050;52.222;20.916;2023-03-19T00:07:39;29.00;;;13.27;;
21777;SDS011;11050;52.222;20.916;2023-03-19T00:10:05;26.50;;;13.03;;
21777;SDS011;11050;52.222;20.916;2023-03-19T00:12:31;27.83;;;14.03;;
21777;SDS011;11050;52.222;20.916;2023-03-19T00:14:57;25.80;;;13.43;;
21777;SDS011;11050;52.222;20.916;2023-03-19T00:17:23;29.20;;;13.50;;
21777;SDS011;11050;52.222;20.916;2023-03-19T00:19:48;30.13;;;13.83;;
21777;SDS011;11050;52.222;20.916;2023-03-19T00:22:15;31.03;;;14.00;;
21777;SDS011;11050;52.222;20.916;2023-03-19T00:24:41;25.40;;;13.17;;
21777;SDS011;11050;52.222;20.916;2023-03-19T00:27:06;30.23;;;14.07;;
21777;SDS011;11050;52.222;20.916;2023-03-19T00:29:32;27.87;;;13.00;;
21777;SDS011;11050;52.222;20.916;2023-03-19T00:31:58;28.37;;;14.80;;
21777;SDS011;11050;52.222;20.916;2023-03-19T00:34:24;25.77;;;13.80;;
21777;SDS011;11050;52.222;20.916;2023-03-19T00:36:49;28.63;;;14.27;;
21777;SDS011;11050;52.222;20.916;2023-03-19T00:39:15;29.73;;;14.00;;
21777;SDS011;11050;52.222;20.916;2023-03-19T00:41:41;27.97;;;14.30;;
21777;SDS011;11050;52.222;20.916;2023-03-19T00:44:14;30.13;;;13.83;;
21777;SDS011;11050;52.222;20.916;2023-03-19T00:46:42;27.33;;;12.77;;
21777;SDS011;11050;52.222;20.916;2023-03-19T00:49:08;27.23;;;14.00;;
21777;SDS011;11050;52.222;20.916;2023-03-19T00:51:34;29.10;;;14.03;;
21777;SDS011;11050;52.222;20.916;2023-03-19T00:54:00;27.93;;;13.70;;
21777;SDS011;11050;52.222;20.916;2023-03-19T00:56:26;31.40;;;14.53;;
21777;SDS011;11050;52.222;20.916;2023-03-19T00:58:51;33.43;;;13.80;;
21777;SDS011;11050;52.222;20.916;2023-03-19T01:01:17;28.93;;;14.27;;
21777;SDS011;11050;52.222;20.916;2023-03-19T01:03:44;25.23;;;13.13;;
21777;SDS011;11050;52.222;20.916;2023-03-19T01:06:10;30.20;;;14.00;;
21777;SDS011;11050;52.222;20.916;2023-03-19T01:08:36;30.67;;;14.17;;
21777;SDS011;11050;52.222;20.916;2023-03-19T01:11:05;29.50;;;13.33;;
21777;SDS011;11050;52.222;20.916;2023-03-19T01:13:36;28.30;;;13.37;;
21777;SDS011;11050;52.222;20.916;2023-03-19T01:16:02;31.53;;;14.73;;
21777;SDS011;11050;52.222;20.916;2023-03-19T01:18:29;29.60;;;14.13;;
21777;SDS011;11050;52.222;20.916;2023-03-19T01:20:55;30.97;;;14.27;;
21777;SDS011;11050;52.222;20.916;2023-03-19T01:23:22;36.20;;;15.30;;
21777;SDS011;11050;52.222;20.916;2023-03-19T01:25:48;26.93;;;13.80;;
21777;SDS011;11050;52.222;20.916;2023-03-19T01:28:13;34.00;;;14.77;;
21777;SDS011;11050;52.222;20.916;2023-03-19T01:30:39;30.47;;;14.43;;
21777;SDS011;11050;52.222;20.916;2023-03-19T01:33:05;30.13;;;13.67;;
21777;SDS011;11050;52.222;20.916;2023-03-19T01:35:31;31.63;;;15.03;;
21777;SDS011;11050;52.222;20.916;2023-03-19T01:37:57;30.80;;;14.90;;
21777;SDS011;11050;52.222;20.916;2023-03-19T01:40:23;30.83;;;14.37;;
21777;SDS011;11050;52.222;20.916;2023-03-19T01:45:45;28.10;;;13.23;;
21777;SDS011;11050;52.222;20.916;2023-03-19T01:48:18;28.43;;;14.07;;
21777;SDS011;11050;52.222;20.916;2023-03-19T01:51:00;26.67;;;14.10;;
21777;SDS011;11050;52.222;20.916;2023-03-19T01:53:28;28.37;;;13.47;;
21777;SDS011;11050;52.222;20.916;2023-03-19T01:56:04;26.50;;;14.10;;
21777;SDS011;11050;52.222;20.916;2023-03-19T01:58:37;29.07;;;13.73;;
21777;SDS011;11050;52.222;20.916;2023-03-19T02:01:07;27.57;;;14.53;;
21777;SDS011;11050;52.222;20.916;2023-03-19T02:03:33;37.10;;;15.47;;
21777;SDS011;11050;52.222;20.916;2023-03-19T02:06:02;32.90;;;13.83;;
21777;SDS011;11050;52.222;20.916;2023-03-19T02:08:29;32.07;;;14.13;;
21777;SDS011;11050;52.222;20.916;2023-03-19T02:10:57;29.77;;;14.67;;
21777;SDS011;11050;52.222;20.916;2023-03-19T02:13:25;30.67;;;14.60;;
21777;SDS011;11050;52.222;20.916;2023-03-19T02:15:52;32.57;;;14.57;;
21777;SDS011;11050;52.222;20.916;2023-03-19T02:18:19;32.47;;;14.60;;
21777;SDS011;11050;52.222;20.916;2023-03-19T02:20:54;27.07;;;13.40;;
21777;SDS011;11050;52.222;20.916;2023-03-19T02:24:13;29.90;;;14.00;;
21777;SDS011;11050;52.222;20.916;2023-03-19T02:26:41;33.60;;;15.23;;
21777;SDS011;11050;52.222;20.916;2023-03-19T02:29:09;27.37;;;12.97;;
21777;SDS011;11050;52.222;20.916;2023-03-19T02:31:35;28.33;;;13.33;;
21777;SDS011;11050;52.222;20.916;2023-03-19T02:34:03;31.60;;;14.83;;
21777;SDS011;11050;52.222;20.916;2023-03-19T02:36:59;32.20;;;14.40;;
21777;SDS011;11050;52.222;20.916;2023-03-19T02:42:25;26.50;;;13.10;;
21777;SDS011;11050;52.222;20.916;2023-03-19T02:44:53;31.10;;;13.97;;
21777;SDS011;11050;52.222;20.916;2023-03-19T02:47:19;29.37;;;14.97;;
21777;SDS011;11050;52.222;20.916;2023-03-19T02:49:45;32.17;;;14.83;;
21777;SDS011;11050;52.222;20.916;2023-03-19T02:52:11;32.00;;;14.67;;
21777;SDS011;11050;52.222;20.916;2023-03-19T02:54:37;29.67;;;13.73;;
21777;SDS011;11050;52.222;20.916;2023-03-19T02:57:03;29.90;;;14.37;;
21777;SDS011;11050;52.222;20.916;2023-03-19T02:59:29;29.47;;;13.63;;
21777;SDS011;11050;52.222;20.916;2023-03-19T03:01:55;26.63;;;12.43;;
21777;SDS011;11050;52.222;20.916;2023-03-19T03:04:21;27.43;;;14.20;;
21777;SDS011;11050;52.222;20.916;2023-03-19T03:06:47;29.00;;;13.13;;
21777;SDS011;11050;52.222;20.916;2023-03-19T03:09:12;30.43;;;14.10;;
21777;SDS011;11050;52.222;20.916;2023-03-19T03:11:39;30.73;;;13.93;;
21777;SDS011;11050;52.222;20.916;2023-03-19T03:14:05;28.33;;;13.80;;
21777;SDS011;11050;52.222;20.916;2023-03-19T03:16:32;29.23;;;13.63;;
21777;SDS011;11050;52.222;20.916;2023-03-19T03:18:58;26.57;;;12.93;;
21777;SDS011;11050;52.222;20.916;2023-03-19T03:21:24;24.47;;;13.23;;
21777;SDS011;11050;52.222;20.916;2023-03-19T03:23:50;28.13;;;13.30;;
21777;SDS011;11050;52.222;20.916;2023-03-19T03:26:16;29.70;;;14.07;;
21777;SDS011;11050;52.222;20.916;2023-03-19T03:28:42;29.97;;;13.10;;
21777;SDS011;11050;52.222;20.916;2023-03-19T03:31:08;27.70;;;12.87;;
21777;SDS011;11050;52.222;20.916;2023-03-19T03:33:34;26.30;;;12.83;;
21777;SDS011;11050;52.222;20.916;2023-03-19T03:36:00;27.90;;;13.07;;
21777;SDS011;11050;52.222;20.916;2023-03-19T03:38:26;28.03;;;14.00;;
21777;SDS011;11050;52.222;20.916;2023-03-19T03:40:52;27.20;;;13.07;;
21777;SDS011;11050;52.222;20.916;2023-03-19T03:43:19;25.87;;;13.27;;
21777;SDS011;11050;52.222;20.916;2023-03-19T03:45:46;31.13;;;14.27;;
21777;SDS011;11050;52.222;20.916;2023-03-19T03:48:13;27.17;;;13.60;;
21777;SDS011;11050;52.222;20.916;2023-03-19T03:50:40;29.87;;;13.63;;
21777;SDS011;11050;52.222;20.916;2023-03-19T03:53:06;28.50;;;13.20;;
21777;SDS011;11050;52.222;20.916;2023-03-19T03:55:33;28.77;;;13.20;;
21777;SDS011;11050;52.222;20.916;2023-03-19T03:57:59;28.20;;;13.37;;
21777;SDS011;11050;52.222;20.916;2023-03-19T04:00:25;28.50;;;13.53;;
21777;SDS011;11050;52.222;20.916;2023-03-19T04:02:51;26.33;;;12.47;;
21777;SDS011;11050;52.222;20.916;2023-03-19T04:05:17;30.00;;;12.70;;
21777;SDS011;11050;52.222;20.916;2023-03-19T04:07:43;26.33;;;12.80;;
21777;SDS011;11050;52.222;20.916;2023-03-19T04:10:10;30.50;;;13.63;;
21777;SDS011;11050;52.222;20.916;2023-03-19T04:12:37;24.93;;;13.03;;
21777;SDS011;11050;52.222;20.916;2023-03-19T04:15:04;25.33;;;13.33;;
21777;SDS011;11050;52.222;20.916;2023-03-19T04:17:33;25.97;;;13.30;;
21777;SDS011;11050;52.222;20.916;2023-03-19T04:19:59;25.37;;;12.17;;
21777;SDS011;11050;52.222;20.916;2023-03-19T04:22:28;25.97;;;13.03;;
21777;SDS011;11050;52.222;20.916;2023-03-19T04:24:55;27.07;;;12.50;;
21777;SDS011;11050;52.222;20.916;2023-03-19T04:27:21;29.00;;;13.83;;
21777;SDS011;11050;52.222;20.916;2023-03-19T04:29:47;24.13;;;12.80;;
21777;SDS011;11050;52.222;20.916;2023-03-19T04:32:13;27.70;;;13.60;;
21777;SDS011;11050;52.222;20.916;2023-03-19T04:34:39;23.70;;;12.03;;
21777;SDS011;11050;52.222;20.916;2023-03-19T04:37:05;25.30;;;12.97;;
21777;SDS011;11050;52.222;20.916;2023-03-19T04:39:34;26.97;;;13.27;;
21777;SDS011;11050;52.222;20.916;2023-03-19T04:42:01;30.67;;;13.00;;
21777;SDS011;11050;52.222;20.916;2023-03-19T04:44:27;27.33;;;13.13;;
21777;SDS011;11050;52.222;20.916;2023-03-19T04:46:53;28.63;;;13.07;;
21777;SDS011;11050;52.222;20.916;2023-03-19T04:49:19;26.83;;;12.13;;
21777;SDS011;11050;52.222;20.916;2023-03-19T04:51:45;31.37;;;13.47;;
21777;SDS011;11050;52.222;20.916;2023-03-19T04:54:10;27.47;;;13.23;;
21777;SDS011;11050;52.222;20.916;2023-03-19T04:56:36;28.47;;;13.63;;
21777;SDS011;11050;52.222;20.916;2023-03-19T04:59:02;29.30;;;12.43;;
21777;SDS011;11050;52.222;20.916;2023-03-19T05:01:28;32.30;;;13.80;;
21777;SDS011;11050;52.222;20.916;2023-03-19T05:03:55;26.53;;;13.30;;
21777;SDS011;11050;52.222;20.916;2023-03-19T05:06:21;28.23;;;13.07;;
21777;SDS011;11050;52.222;20.916;2023-03-19T05:08:46;27.70;;;12.63;;
21777;SDS011;11050;52.222;20.916;2023-03-19T05:11:12;28.77;;;12.13;;
21777;SDS011;11050;52.222;20.916;2023-03-19T05:13:38;25.27;;;13.17;;
21777;SDS011;11050;52.222;20.916;2023-03-19T05:16:04;26.83;;;13.33;;
21777;SDS011;11050;52.222;20.916;2023-03-19T05:18:30;30.33;;;13.67;;
21777;SDS011;11050;52.222;20.916;2023-03-19T05:20:57;29.33;;;13.23;;
21777;SDS011;11050;52.222;20.916;2023-03-19T05:23:23;28.00;;;13.57;;
21777;SDS011;11050;52.222;20.916;2023-03-19T05:25:49;25.00;;;12.23;;
21777;SDS011;11050;52.222;20.916;2023-03-19T05:28:15;29.33;;;13.10;;
21777;SDS011;11050;52.222;20.916;2023-03-19T05:30:41;25.87;;;13.93;;
21777;SDS011;11050;52.222;20.916;2023-03-19T05:33:07;26.27;;;13.10;;
21777;SDS011;11050;52.222;20.916;2023-03-19T05:35:37;25.57;;;12.87;;
21777;SDS011;11050;52.222;20.916;2023-03-19T05:38:03;27.93;;;13.57;;
21777;SDS011;11050;52.222;20.916;2023-03-19T05:40:29;26.00;;;12.33;;
21777;SDS011;11050;52.222;20.916;2023-03-19T05:42:55;31.53;;;13.87;;
21777;SDS011;11050;52.222;20.916;2023-03-19T05:45:21;29.97;;;14.40;;
21777;SDS011;11050;52.222;20.916;2023-03-19T05:47:47;29.27;;;13.67;;
21777;SDS011;11050;52.222;20.916;2023-03-19T05:50:14;28.93;;;13.73;;
21777;SDS011;11050;52.222;20.916;2023-03-19T05:52:41;24.97;;;12.77;;
21777;SDS011;11050;52.222;20.916;2023-03-19T05:55:07;23.93;;;13.17;;
21777;SDS011;11050;52.222;20.916;2023-03-19T05:57:33;23.13;;;13.23;;
21777;SDS011;11050;52.222;20.916;2023-03-19T05:59:59;31.87;;;14.30;;
21777;SDS011;11050;52.222;20.916;2023-03-19T06:02:25;32.10;;;14.63;;
21777;SDS011;11050;52.222;20.916;2023-03-19T06:04:51;30.13;;;14.50;;
21777;SDS011;11050;52.222;20.916;2023-03-19T06:07:17;26.87;;;14.43;;
21777;SDS011;11050;52.222;20.916;2023-03-19T06:09:42;27.10;;;14.07;;
21777;SDS011;11050;52.222;20.916;2023-03-19T06:12:09;28.40;;;14.13;;
21777;SDS011;11050;52.222;20.916;2023-03-19T06:14:35;31.60;;;15.17;;
21777;SDS011;11050;52.222;20.916;2023-03-19T06:17:00;31.80;;;14.67;;
21777;SDS011;11050;52.222;20.916;2023-03-19T06:19:26;29.57;;;14.67;;
21777;SDS011;11050;52.222;20.916;2023-03-19T06:21:52;28.70;;;14.30;;
21777;SDS011;11050;52.222;20.916;2023-03-19T06:24:17;30.50;;;14.23;;
21777;SDS011;11050;52.222;20.916;2023-03-19T06:26:43;27.20;;;14.30;;
21777;SDS011;11050;52.222;20.916;2023-03-19T06:29:09;27.37;;;14.67;;
21777;SDS011;11050;52.222;20.916;2023-03-19T06:31:35;30.53;;;14.97;;
21777;SDS011;11050;52.222;20.916;2023-03-19T06:34:03;34.33;;;16.23;;
21777;SDS011;11050;52.222;20.916;2023-03-19T06:36:29;30.63;;;15.53;;
21777;SDS011;11050;52.222;20.916;2023-03-19T06:38:55;29.93;;;15.17;;
21777;SDS011;11050;52.222;20.916;2023-03-19T06:41:21;30.60;;;15.30;;
21777;SDS011;11050;52.222;20.916;2023-03-19T06:43:48;28.03;;;14.50;;
21777;SDS011;11050;52.222;20.916;2023-03-19T06:46:14;31.00;;;14.83;;
21777;SDS011;11050;52.222;20.916;2023-03-19T06:48:40;28.70;;;15.30;;
21777;SDS011;11050;52.222;20.916;2023-03-19T06:51:06;26.67;;;14.43;;
21777;SDS011;11050;52.222;20.916;2023-03-19T06:53:32;32.43;;;16.33;;
21777;SDS011;11050;52.222;20.916;2023-03-19T06:55:59;30.40;;;15.20;;
21777;SDS011;11050;52.222;20.916;2023-03-19T06:58:25;27.07;;;14.17;;
21777;SDS011;11050;52.222;20.916;2023-03-19T07:00:51;27.77;;;15.33;;
21777;SDS011;11050;52.222;20.916;2023-03-19T07:03:17;29.67;;;15.63;;
21777;SDS011;11050;52.222;20.916;2023-03-19T07:05:42;30.93;;;16.17;;
21777;SDS011;11050;52.222;20.916;2023-03-19T07:08:08;29.03;;;15.50;;
21777;SDS011;11050;52.222;20.916;2023-03-19T07:10:39;28.87;;;15.43;;
21777;SDS011;11050;52.222;20.916;2023-03-19T07:13:05;28.00;;;15.93;;
21777;SDS011;11050;52.222;20.916;2023-03-19T07:15:31;29.63;;;15.43;;
21777;SDS011;11050;52.222;20.916;2023-03-19T07:17:58;30.23;;;16.70;;
21777;SDS011;11050;52.222;20.916;2023-03-19T07:20:24;30.93;;;16.40;;
21777;SDS011;11050;52.222;20.916;2023-03-19T07:22:50;31.03;;;15.87;;
21777;SDS011;11050;52.222;20.916;2023-03-19T07:25:16;31.03;;;15.97;;
21777;SDS011;11050;52.222;20.916;2023-03-19T07:27:42;36.30;;;16.07;;
21777;SDS011;11050;52.222;20.916;2023-03-19T07:30:10;33.53;;;16.03;;
21777;SDS011;11050;52.222;20.916;2023-03-19T07:32:37;29.43;;;16.27;;
21777;SDS011;11050;52.222;20.916;2023-03-19T07:35:04;32.37;;;16.60;;
21777;SDS011;11050;52.222;20.916;2023-03-19T07:37:31;29.27;;;14.90;;
21777;SDS011;11050;52.222;20.916;2023-03-19T07:39:57;31.37;;;16.93;;
21777;SDS011;11050;52.222;20.916;2023-03-19T07:42:23;30.80;;;15.97;;
21777;SDS011;11050;52.222;20.916;2023-03-19T07:44:48;26.73;;;15.93;;
21777;SDS011;11050;52.222;20.916;2023-03-19T07:47:14;28.13;;;16.13;;
21777;SDS011;11050;52.222;20.916;2023-03-19T07:49:41;28.83;;;16.23;;
21777;SDS011;11050;52.222;20.916;2023-03-19T07:52:07;28.43;;;16.37;;
21777;SDS011;11050;52.222;20.916;2023-03-19T07:54:33;31.07;;;15.83;;
21777;SDS011;11050;52.222;20.916;2023-03-19T07:56:59;32.23;;;16.60;;
21777;SDS011;11050;52.222;20.916;2023-03-19T07:59:25;27.25;;;15.55;;
21777;SDS011;11050;52.222;20.916;2023-03-19T08:01:51;26.55;;;16.08;;
21777;SDS011;11050;52.222;20.916;2023-03-19T08:04:17;27.77;;;15.90;;
21777;SDS011;11050;52.222;20.916;2023-03-19T08:06:43;31.43;;;17.90;;
21777;SDS011;11050;52.222;20.916;2023-03-19T08:09:08;26.88;;;15.82;;
21777;SDS011;11050;52.222;20.916;2023-03-19T08:11:34;29.65;;;16.42;;
21777;SDS011;11050;52.222;20.916;2023-03-19T08:14:01;24.15;;;14.88;;
21777;SDS011;11050;52.222;20.916;2023-03-19T08:16:27;26.95;;;14.88;;
21777;SDS011;11050;52.222;20.916;2023-03-19T08:18:53;28.15;;;15.35;;
21777;SDS011;11050;52.222;20.916;2023-03-19T08:21:19;28.52;;;15.20;;
21777;SDS011;11050;52.222;20.916;2023-03-19T08:23:45;26.40;;;14.55;;
21777;SDS011;11050;52.222;20.916;2023-03-19T08:26:10;23.35;;;14.93;;
21777;SDS011;11050;52.222;20.916;2023-03-19T08:28:36;22.80;;;14.85;;
21777;SDS011;11050;52.222;20.916;2023-03-19T08:31:06;25.23;;;14.18;;
21777;SDS011;11050;52.222;20.916;2023-03-19T08:33:34;27.33;;;13.93;;
21777;SDS011;11050;52.222;20.916;2023-03-19T08:36:06;26.02;;;14.20;;
21777;SDS011;11050;52.222;20.916;2023-03-19T08:38:36;26.08;;;14.70;;
21777;SDS011;11050;52.222;20.916;2023-03-19T08:41:02;25.02;;;14.55;;
21777;SDS011;11050;52.222;20.916;2023-03-19T08:43:30;24.15;;;13.68;;
21777;SDS011;11050;52.222;20.916;2023-03-19T08:45:58;21.48;;;13.18;;
21777;SDS011;11050;52.222;20.916;2023-03-19T08:48:25;22.02;;;13.18;;
21777;SDS011;11050;52.222;20.916;2023-03-19T08:50:52;22.40;;;13.48;;
21777;SDS011;11050;52.222;20.916;2023-03-19T08:53:24;21.65;;;13.05;;
21777;SDS011;11050;52.222;20.916;2023-03-19T08:55:54;23.13;;;13.35;;
21777;SDS011;11050;52.222;20.916;2023-03-19T08:58:23;21.27;;;12.02;;
21777;SDS011;11050;52.222;20.916;2023-03-19T09:00:50;19.92;;;12.27;;
21777;SDS011;11050;52.222;20.916;2023-03-19T09:03:17;18.70;;;11.20;;
21777;SDS011;11050;52.222;20.916;2023-03-19T09:05:45;20.02;;;11.52;;
21777;SDS011;11050;52.222;20.916;2023-03-19T09:08:11;15.90;;;10.57;;
21777;SDS011;11050;52.222;20.916;2023-03-19T09:10:38;18.83;;;11.10;;
21777;SDS011;11050;52.222;20.916;2023-03-19T09:13:04;19.67;;;11.35;;
21777;SDS011;11050;52.222;20.916;2023-03-19T09:15:30;25.10;;;14.30;;
21777;SDS011;11050;52.222;20.916;2023-03-19T09:17:56;20.08;;;11.68;;
21777;SDS011;11050;52.222;20.916;2023-03-19T09:20:22;20.42;;;11.05;;
21777;SDS011;11050;52.222;20.916;2023-03-19T09:22:48;22.40;;;12.02;;
21777;SDS011;11050;52.222;20.916;2023-03-19T09:25:14;18.45;;;12.00;;
21777;SDS011;11050;52.222;20.916;2023-03-19T09:27:40;18.45;;;11.35;;
21777;SDS011;11050;52.222;20.916;2023-03-19T09:30:06;19.67;;;11.38;;
21777;SDS011;11050;52.222;20.916;2023-03-19T09:32:33;18.98;;;11.32;;
21777;SDS011;11050;52.222;20.916;2023-03-19T09:35:00;20.65;;;11.65;;
21777;SDS011;11050;52.222;20.916;2023-03-19T09:37:26;19.30;;;12.15;;
21777;SDS011;11050;52.222;20.916;2023-03-19T09:39:52;20.95;;;12.18;;
21777;SDS011;11050;52.222;20.916;2023-03-19T09:45:14;18.83;;;12.05;;
21777;SDS011;11050;52.222;20.916;2023-03-19T09:47:43;19.35;;;11.82;;
21777;SDS011;11050;52.222;20.916;2023-03-19T09:50:21;16.55;;;11.40;;
21777;SDS011;11050;52.222;20.916;2023-03-19T09:53:14;18.50;;;12.05;;
21777;SDS011;11050;52.222;20.916;2023-03-19T09:56:04;18.00;;;11.27;;
21777;SDS011;11050;52.222;20.916;2023-03-19T09:58:37;18.67;;;11.82;;
21777;SDS011;11050;52.222;20.916;2023-03-19T10:01:03;18.10;;;11.10;;
21777;SDS011;11050;52.222;20.916;2023-03-19T10:14:19;18.40;;;11.27;;
21777;SDS011;11050;52.222;20.916;2023-03-19T10:17:30;16.15;;;10.57;;
21777;SDS011;11050;52.222;20.916;2023-03-19T10:20:16;17.40;;;10.63;;
21777;SDS011;11050;52.222;20.916;2023-03-19T10:22:58;19.65;;;10.43;;
21777;SDS011;11050;52.222;20.916;2023-03-19T10:25:57;17.65;;;10.00;;
21777;SDS011;11050;52.222;20.916;2023-03-19T10:28:27;17.52;;;11.02;;
21777;SDS011;11050;52.222;20.916;2023-03-19T10:30:55;18.13;;;11.27;;
21777;SDS011;11050;52.222;20.916;2023-03-19T10:36:16;16.23;;;10.15;;
21777;SDS011;11050;52.222;20.916;2023-03-19T10:38:52;15.43;;;9.70;;
21777;SDS011;11050;52.222;20.916;2023-03-19T10:44:12;15.95;;;10.63;;
21777;SDS011;11050;52.222;20.916;2023-03-19T10:46:52;18.90;;;11.05;;
21777;SDS011;11050;52.222;20.916;2023-03-19T10:49:21;14.98;;;10.23;;
21777;SDS011;11050;52.222;20.916;2023-03-19T10:51:47;14.65;;;10.68;;
21777;SDS011;11050;52.222;20.916;2023-03-19T10:54:25;16.40;;;10.82;;
21777;SDS011;11050;52.222;20.916;2023-03-19T10:56:55;20.33;;;11.90;;
21777;SDS011;11050;52.222;20.916;2023-03-19T11:01:59;14.48;;;9.95;;
21777;SDS011;11050;52.222;20.916;2023-03-19T11:04:40;13.57;;;9.82;;
21777;SDS011;11050;52.222;20.916;2023-03-19T11:07:09;16.15;;;10.48;;
21777;SDS011;11050;52.222;20.916;2023-03-19T11:09:47;14.57;;;10.25;;
21777;SDS011;11050;52.222;20.916;2023-03-19T11:14:50;17.55;;;11.30;;
21777;SDS011;11050;52.222;20.916;2023-03-19T11:20:22;14.65;;;10.43;;
21777;SDS011;11050;52.222;20.916;2023-03-19T11:22:57;14.40;;;10.15;;
21777;SDS011;11050;52.222;20.916;2023-03-19T11:28:18;14.38;;;9.85;;
21777;SDS011;11050;52.222;20.916;2023-03-19T11:36:40;14.95;;;10.15;;
21777;SDS011;11050;52.222;20.916;2023-03-19T11:49:02;13.07;;;9.45;;
21777;SDS011;11050;52.222;20.916;2023-03-19T11:56:39;12.80;;;8.82;;
21777;SDS011;11050;52.222;20.916;2023-03-19T12:05:43;14.32;;;9.15;;
21777;SDS011;11050;52.222;20.916;2023-03-19T12:08:48;14.90;;;9.40;;
21777;SDS011;11050;52.222;20.916;2023-03-19T12:11:29;14.30;;;9.95;;
21777;SDS011;11050;52.222;20.916;2023-03-19T12:14:02;14.38;;;9.43;;
21777;SDS011;11050;52.222;20.916;2023-03-19T12:19:42;14.73;;;9.70;;
21777;SDS011;11050;52.222;20.916;2023-03-19T12:22:46;14.85;;;9.65;;
21777;SDS011;11050;52.222;20.916;2023-03-19T12:25:46;11.20;;;9.10;;
21777;SDS011;11050;52.222;20.916;2023-03-19T12:28:34;13.48;;;9.30;;
21777;SDS011;11050;52.222;20.916;2023-03-19T12:31:20;13.55;;;9.50;;
21777;SDS011;11050;52.222;20.916;2023-03-19T12:37:06;13.48;;;9.40;;
21777;SDS011;11050;52.222;20.916;2023-03-19T12:40:01;13.23;;;9.43;;
21777;SDS011;11050;52.222;20.916;2023-03-19T12:42:51;14.70;;;9.68;;
21777;SDS011;11050;52.222;20.916;2023-03-19T12:48:05;13.77;;;9.25;;
21777;SDS011;11050;52.222;20.916;2023-03-19T12:50:48;15.48;;;9.75;;
21777;SDS011;11050;52.222;20.916;2023-03-19T12:53:29;14.20;;;9.15;;
21777;SDS011;11050;52.222;20.916;2023-03-19T12:56:18;11.93;;;8.80;;
21777;SDS011;11050;52.222;20.916;2023-03-19T13:02:55;12.63;;;8.98;;
21777;SDS011;11050;52.222;20.916;2023-03-19T13:05:46;14.10;;;9.57;;
21777;SDS011;11050;52.222;20.916;2023-03-19T13:08:42;14.40;;;9.60;;
21777;SDS011;11050;52.222;20.916;2023-03-19T13:14:21;11.20;;;8.88;;
21777;SDS011;11050;52.222;20.916;2023-03-19T13:17:17;12.23;;;9.45;;
21777;SDS011;11050;52.222;20.916;2023-03-19T13:20:03;13.80;;;9.30;;
21777;SDS011;11050;52.222;20.916;2023-03-19T13:22:42;12.63;;;9.90;;
21777;SDS011;11050;52.222;20.916;2023-03-19T13:25:36;14.02;;;10.20;;
21777;SDS011;11050;52.222;20.916;2023-03-19T13:28:09;12.65;;;9.60;;
21777;SDS011;11050;52.222;20.916;2023-03-19T13:30:56;12.75;;;9.63;;
21777;SDS011;11050;52.222;20.916;2023-03-19T13:36:29;13.10;;;9.68;;
21777;SDS011;11050;52.222;20.916;2023-03-19T13:39:02;15.15;;;9.82;;
21777;SDS011;11050;52.222;20.916;2023-03-19T13:46:54;14.35;;;9.32;;
21777;SDS011;11050;52.222;20.916;2023-03-19T13:49:22;13.00;;;9.55;;
21777;SDS011;11050;52.222;20.916;2023-03-19T13:51:57;10.20;;;8.90;;
21777;SDS011;11050;52.222;20.916;2023-03-19T13:59:40;11.85;;;8.68;;
21777;SDS011;11050;52.222;20.916;2023-03-19T14:07:29;13.88;;;9.43;;
21777;SDS011;11050;52.222;20.916;2023-03-19T14:10:05;14.85;;;9.10;;
21777;SDS011;11050;52.222;20.916;2023-03-19T14:12:41;13.10;;;9.30;;
21777;SDS011;11050;52.222;20.916;2023-03-19T14:22:39;13.02;;;9.27;;
21777;SDS011;11050;52.222;20.916;2023-03-19T14:31:20;11.25;;;8.95;;
21777;SDS011;11050;52.222;20.916;2023-03-19T14:45:40;15.82;;;10.07;;
21777;SDS011;11050;52.222;20.916;2023-03-19T14:48:48;14.43;;;8.95;;
21777;SDS011;11050;52.222;20.916;2023-03-19T14:54:27;13.07;;;9.15;;
21777;SDS011;11050;52.222;20.916;2023-03-19T14:57:17;14.07;;;9.32;;
21777;SDS011;11050;52.222;20.916;2023-03-19T14:59:47;13.32;;;9.60;;
21777;SDS011;11050;52.222;20.916;2023-03-19T15:07:57;12.00;;;8.70;;
21777;SDS011;11050;52.222;20.916;2023-03-19T15:10:29;15.18;;;9.52;;
21777;SDS011;11050;52.222;20.916;2023-03-19T15:13:22;12.63;;;9.00;;
21777;SDS011;11050;52.222;20.916;2023-03-19T15:18:35;14.85;;;9.13;;
21777;SDS011;11050;52.222;20.916;2023-03-19T15:21:02;14.32;;;9.05;;
21777;SDS011;11050;52.222;20.916;2023-03-19T15:23:29;13.32;;;9.13;;
21777;SDS011;11050;52.222;20.916;2023-03-19T15:25:57;13.30;;;9.05;;
21777;SDS011;11050;52.222;20.916;2023-03-19T15:28:31;12.00;;;9.32;;
21777;SDS011;11050;52.222;20.916;2023-03-19T15:31:08;11.20;;;8.43;;
21777;SDS011;11050;52.222;20.916;2023-03-19T15:33:35;15.57;;;9.48;;
21777;SDS011;11050;52.222;20.916;2023-03-19T15:38:38;13.98;;;8.90;;
21777;SDS011;11050;52.222;20.916;2023-03-19T15:41:16;15.60;;;8.57;;
21777;SDS011;11050;52.222;20.916;2023-03-19T15:43:43;13.15;;;8.88;;
21777;SDS011;11050;52.222;20.916;2023-03-19T15:46:11;14.93;;;9.40;;
21777;SDS011;11050;52.222;20.916;2023-03-19T15:51:13;19.92;;;13.85;;
21777;SDS011;11050;52.222;20.916;2023-03-19T15:53:45;13.43;;;9.95;;
21777;SDS011;11050;52.222;20.916;2023-03-19T15:56:12;13.13;;;9.10;;
21777;SDS011;11050;52.222;20.916;2023-03-19T15:58:43;14.30;;;9.07;;
21777;SDS011;11050;52.222;20.916;2023-03-19T16:01:14;15.75;;;9.43;;
21777;SDS011;11050;52.222;20.916;2023-03-19T16:03:48;15.10;;;9.63;;
21777;SDS011;11050;52.222;20.916;2023-03-19T16:09:33;15.07;;;11.30;;
21777;SDS011;11050;52.222;20.916;2023-03-19T16:11:55;17.33;;;11.13;;
21777;SDS011;11050;52.222;20.916;2023-03-19T16:17:12;50.10;;;31.75;;
21777;SDS011;11050;52.222;20.916;2023-03-19T16:19:50;21.15;;;15.05;;
21777;SDS011;11050;52.222;20.916;2023-03-19T16:22:20;14.90;;;9.50;;
21777;SDS011;11050;52.222;20.916;2023-03-19T16:24:49;22.10;;;14.27;;
21777;SDS011;11050;52.222;20.916;2023-03-19T16:27:18;20.40;;;13.32;;
21777;SDS011;11050;52.222;20.916;2023-03-19T16:29:55;24.02;;;16.48;;
21777;SDS011;11050;52.222;20.916;2023-03-19T16:32:24;24.95;;;19.05;;
21777;SDS011;11050;52.222;20.916;2023-03-19T16:34:53;28.42;;;21.05;;
21777;SDS011;11050;52.222;20.916;2023-03-19T16:47:42;20.70;;;14.73;;
21777;SDS011;11050;52.222;20.916;2023-03-19T16:50:14;32.88;;;23.95;;
21777;SDS011;11050;52.222;20.916;2023-03-19T16:52:42;25.33;;;16.70;;
21777;SDS011;11050;52.222;20.916;2023-03-19T16:55:15;26.65;;;16.17;;
21777;SDS011;11050;52.222;20.916;2023-03-19T17:00:22;37.90;;;19.00;;
21777;SDS011;11050;52.222;20.916;2023-03-19T17:02:50;35.10;;;15.05;;
21777;SDS011;11050;52.222;20.916;2023-03-19T17:05:19;26.80;;;13.57;;